Time;durP1;ratioP1;P1;durP2;ratioP2;P2;SDS_P1;SDS_P2;PMS_P1;PMS_P2;Temp;Humidity;BMP_temperature;BMP_pressure;BME280_temperature;BME280_humidity;BME280_pressure;Samples;Min_cycle;Max_cycle;Signal;HPM_P1;HPM_P2
2022/08/17 00:01:28;;;;;;;11.48;10.00;;;24.60;99.90;;;;;;5032061;28;20231;-69
2022/08/17 00:03:54;;;;;;;12.93;10.07;;;24.50;99.90;;;;;;5028272;28;20686;-68
2022/08/17 00:06:28;;;;;;;13.82;10.80;;;24.50;99.90;;;;;;5012158;28;20201;-68
2022/08/17 00:08:59;;;;;;;15.63;11.98;;;24.40;99.90;;;;;;5028704;28;20284;-69
2022/08/17 00:11:34;;;;;;;16.80;11.05;;;24.40;99.90;;;;;;5027773;28;20228;-67
2022/08/17 00:14:21;;;;;;;12.98;10.85;;;24.40;99.90;;;;;;5026404;28;20196;-68
2022/08/17 00:16:49;;;;;;;16.88;12.57;;;24.40;99.90;;;;;;5028426;28;20200;-68
2022/08/17 00:19:21;;;;;;;14.05;11.23;;;24.40;99.90;;;;;;5014120;28;20258;-68
2022/08/17 00:21:48;;;;;;;16.95;10.60;;;24.40;99.90;;;;;;5026267;28;20567;-67
2022/08/17 00:24:14;;;;;;;15.82;12.75;;;24.30;99.90;;;;;;5022587;28;20251;-71
2022/08/17 00:26:40;;;;;;;16.15;11.25;;;24.30;99.90;;;;;;5014101;28;20627;-71
2022/08/17 00:29:07;;;;;;;11.95;10.60;;;24.30;99.90;;;;;;5028252;28;20196;-69
2022/08/17 00:31:34;;;;;;;13.32;10.25;;;24.20;99.90;;;;;;5027040;28;20161;-68
2022/08/17 00:34:00;;;;;;;11.73;9.85;;;24.30;99.90;;;;;;5010979;28;20567;-68
2022/08/17 00:36:26;;;;;;;13.77;10.23;;;24.30;99.90;;;;;;5012966;28;20219;-68
2022/08/17 00:38:51;;;;;;;17.10;9.82;;;24.20;99.90;;;;;;5027558;28;20294;-70
2022/08/17 00:41:20;;;;;;;11.40;9.35;;;24.20;99.90;;;;;;5004352;28;20739;-71
2022/08/17 00:43:47;;;;;;;10.82;9.73;;;24.10;99.90;;;;;;5013888;28;20216;-69
2022/08/17 00:46:16;;;;;;;11.10;9.18;;;24.00;99.90;;;;;;5027183;28;20179;-69
2022/08/17 00:48:42;;;;;;;11.40;10.00;;;24.00;99.90;;;;;;5025341;28;20629;-69
2022/08/17 00:51:13;;;;;;;10.35;9.25;;;24.00;99.90;;;;;;5024402;28;20595;-68
2022/08/17 00:53:43;;;;;;;13.18;9.73;;;24.00;99.90;;;;;;5013576;28;20617;-68
2022/08/17 00:56:14;;;;;;;11.65;9.77;;;24.00;99.90;;;;;;5025862;28;20215;-68
2022/08/17 00:58:40;;;;;;;12.45;9.88;;;24.00;99.90;;;;;;5021700;28;20297;-68
2022/08/17 01:01:08;;;;;;;11.23;9.48;;;24.00;99.90;;;;;;5028419;28;20676;-69
2022/08/17 01:03:36;;;;;;;11.98;10.27;;;23.90;99.90;;;;;;5023666;28;20253;-68
2022/08/17 01:06:04;;;;;;;13.02;9.90;;;23.90;99.90;;;;;;5024743;28;20200;-69
2022/08/17 01:08:30;;;;;;;13.95;10.25;;;23.80;99.90;;;;;;5024693;28;20631;-69
2022/08/17 01:11:00;;;;;;;10.55;9.52;;;23.80;99.90;;;;;;5011225;28;20692;-69
2022/08/17 01:13:33;;;;;;;11.80;8.82;;;23.80;99.90;;;;;;5006736;28;20251;-68
2022/08/17 01:16:03;;;;;;;13.63;10.10;;;23.80;99.90;;;;;;5025648;28;20648;-68
2022/08/17 01:18:31;;;;;;;11.77;9.18;;;23.80;99.90;;;;;;5012140;28;20250;-68
2022/08/17 01:21:01;;;;;;;11.20;9.48;;;23.80;99.90;;;;;;5014240;28;20232;-70
2022/08/17 01:23:27;;;;;;;16.50;9.77;;;23.60;99.90;;;;;;5020867;28;20247;-69
2022/08/17 01:25:56;;;;;;;10.07;8.82;;;23.70;99.90;;;;;;5027103;28;20228;-68
2022/08/17 01:28:23;;;;;;;12.35;9.43;;;23.70;99.90;;;;;;5011357;28;20204;-69
2022/08/17 01:30:52;;;;;;;12.38;9.40;;;23.70;99.90;;;;;;5029499;28;20629;-68
2022/08/17 01:33:17;;;;;;;10.57;9.10;;;23.60;99.90;;;;;;5024129;28;20681;-69
2022/08/17 01:35:43;;;;;;;14.05;10.50;;;23.60;99.90;;;;;;5028632;28;20196;-71
2022/08/17 01:38:08;;;;;;;12.10;10.48;;;23.70;99.90;;;;;;5025995;28;20196;-68
2022/08/17 01:40:38;;;;;;;11.20;9.95;;;23.60;99.90;;;;;;5012025;28;20618;-69
2022/08/17 01:43:21;;;;;;;10.98;9.88;;;23.60;99.90;;;;;;5027417;28;20195;-70
2022/08/17 01:45:50;;;;;;;10.77;9.52;;;23.60;99.90;;;;;;5025628;28;20196;-66
2022/08/17 01:48:18;;;;;;;10.65;9.55;;;23.60;99.90;;;;;;5022834;28;20220;-69
2022/08/17 01:50:46;;;;;;;12.77;9.57;;;23.60;99.90;;;;;;5023097;28;20634;-70
2022/08/17 01:53:20;;;;;;;11.75;9.95;;;23.60;99.90;;;;;;5005438;28;20233;-68
2022/08/17 01:55:56;;;;;;;14.15;10.70;;;23.60;99.90;;;;;;5006385;28;20274;-68
2022/08/17 01:58:22;;;;;;;12.23;9.63;;;23.60;99.90;;;;;;5020147;28;20569;-68
2022/08/17 02:00:50;;;;;;;15.63;10.15;;;23.50;99.90;;;;;;5030001;28;20168;-68
2022/08/17 02:03:17;;;;;;;11.65;9.63;;;23.60;99.90;;;;;;5011293;28;20611;-68
2022/08/17 02:05:43;;;;;;;12.07;9.98;;;23.50;99.90;;;;;;5024266;28;20212;-71
2022/08/17 02:08:09;;;;;;;13.45;9.82;;;23.50;99.90;;;;;;5023020;28;20621;-71
2022/08/17 02:10:34;;;;;;;12.75;9.38;;;23.50;99.90;;;;;;5026981;28;20169;-68
2022/08/17 02:13:03;;;;;;;10.75;9.65;;;23.50;99.90;;;;;;5026125;28;20246;-68
2022/08/17 02:15:28;;;;;;;14.25;10.43;;;23.40;99.90;;;;;;5021616;28;20221;-69
2022/08/17 02:17:54;;;;;;;12.25;10.02;;;23.40;99.90;;;;;;5029070;28;20231;-70
2022/08/17 02:20:21;;;;;;;12.82;10.57;;;23.40;99.90;;;;;;5024964;28;20196;-68
2022/08/17 02:22:48;;;;;;;14.20;10.77;;;23.40;99.90;;;;;;5023180;28;20220;-69
2022/08/17 02:25:16;;;;;;;12.57;10.80;;;23.40;99.90;;;;;;5044352;23;20220;-66
2022/08/17 02:27:42;;;;;;;13.35;11.02;;;23.40;99.90;;;;;;5004230;28;20228;-65
2022/08/17 02:30:11;;;;;;;12.32;11.02;;;23.40;99.90;;;;;;5021126;28;20196;-66
2022/08/17 02:32:36;;;;;;;14.40;10.20;;;23.40;99.90;;;;;;5023896;28;20200;-66
2022/08/17 02:35:03;;;;;;;11.32;9.90;;;23.40;99.90;;;;;;5022305;28;20208;-66
2022/08/17 02:37:30;;;;;;;13.63;10.57;;;23.30;99.90;;;;;;5018801;28;20169;-66
2022/08/17 02:39:57;;;;;;;11.85;10.60;;;23.30;99.90;;;;;;5022155;28;20168;-66
2022/08/17 02:42:30;;;;;;;11.93;9.50;;;23.30;99.90;;;;;;5021617;28;20200;-66
2022/08/17 02:44:56;;;;;;;10.73;9.15;;;23.30;99.90;;;;;;5020311;28;20208;-66
2022/08/17 02:47:21;;;;;;;11.27;9.85;;;23.20;99.90;;;;;;5019955;28;20212;-66
2022/08/17 02:49:47;;;;;;;13.30;10.82;;;23.30;99.90;;;;;;5037861;28;20200;-67
2022/08/17 02:52:12;;;;;;;10.98;9.88;;;23.20;99.90;;;;;;5033421;28;20173;-66
2022/08/17 02:54:38;;;;;;;12.70;10.73;;;23.20;99.90;;;;;;5023904;28;20295;-66
2022/08/17 02:57:03;;;;;;;14.18;10.68;;;23.00;99.90;;;;;;5025643;28;20200;-66
2022/08/17 02:59:29;;;;;;;11.77;10.50;;;23.00;99.90;;;;;;5021327;28;20212;-67
2022/08/17 03:01:55;;;;;;;12.90;10.30;;;23.00;99.90;;;;;;5020248;28;20563;-68
2022/08/17 03:04:21;;;;;;;12.52;10.93;;;23.10;99.90;;;;;;5019218;28;20193;-67
2022/08/17 03:06:47;;;;;;;15.50;11.32;;;23.10;99.90;;;;;;5022151;28;20843;-68
2022/08/17 03:09:12;;;;;;;13.85;10.55;;;23.10;99.90;;;;;;5021572;28;20196;-66
2022/08/17 03:11:38;;;;;;;14.18;10.98;;;23.00;99.90;;;;;;5022506;28;20236;-67
2022/08/17 03:14:03;;;;;;;14.00;10.23;;;23.10;99.90;;;;;;5025112;28;20200;-67
2022/08/17 03:16:29;;;;;;;16.60;11.38;;;23.00;99.90;;;;;;5021466;28;20164;-67
2022/08/17 03:18:55;;;;;;;14.93;11.18;;;23.00;99.90;;;;;;5026774;28;20192;-67
2022/08/17 03:21:20;;;;;;;13.88;11.38;;;23.00;99.90;;;;;;5023381;28;20579;-67
2022/08/17 03:23:46;;;;;;;15.95;11.57;;;23.00;99.90;;;;;;5024893;28;20307;-67
2022/08/17 03:26:11;;;;;;;17.30;11.60;;;23.00;99.90;;;;;;5007985;28;20200;-67
2022/08/17 03:28:38;;;;;;;13.50;11.38;;;23.00;99.90;;;;;;5022551;28;20220;-67
2022/08/17 03:31:04;;;;;;;11.63;9.93;;;23.00;99.90;;;;;;5025257;28;20247;-66
2022/08/17 03:33:30;;;;;;;11.60;10.10;;;23.00;99.90;;;;;;5025147;28;20216;-65
2022/08/17 03:35:56;;;;;;;12.98;11.48;;;23.00;99.90;;;;;;5023608;28;20217;-65
2022/08/17 03:38:22;;;;;;;14.52;11.60;;;23.00;99.90;;;;;;5022216;28;20205;-66
2022/08/17 03:40:48;;;;;;;13.27;11.40;;;23.00;99.90;;;;;;5024938;28;20689;-66
2022/08/17 03:43:14;;;;;;;14.10;11.50;;;23.00;99.90;;;;;;5021816;28;20222;-66
2022/08/17 03:56:55;;;;;;;14.20;11.40;;;22.90;99.90;;;;;;5027086;28;20681;-66
2022/08/17 03:59:21;;;;;;;12.57;11.25;;;22.90;99.90;;;;;;5020519;28;20249;-66
2022/08/17 04:01:51;;;;;;;14.45;12.20;;;23.00;99.90;;;;;;5021826;28;20196;-66
2022/08/17 04:04:17;;;;;;;15.73;11.70;;;23.00;99.90;;;;;;5009253;28;20279;-67
2022/08/17 04:06:43;;;;;;;14.43;11.68;;;23.00;99.90;;;;;;5024062;28;20247;-67
2022/08/17 04:09:09;;;;;;;13.00;11.52;;;23.00;99.90;;;;;;5021154;28;20192;-66
2022/08/17 04:11:36;;;;;;;14.82;11.60;;;23.00;99.90;;;;;;5005530;28;20231;-67
2022/08/17 04:14:04;;;;;;;16.85;12.63;;;23.10;99.90;;;;;;5023903;28;20691;-66
2022/08/17 04:16:30;;;;;;;14.43;11.55;;;23.10;99.90;;;;;;5008496;28;20176;-66
2022/08/17 04:18:56;;;;;;;12.15;10.82;;;23.10;99.90;;;;;;5022727;28;20200;-66
2022/08/17 04:21:22;;;;;;;12.77;10.95;;;23.20;99.90;;;;;;5021801;28;20205;-67
2022/08/17 04:23:48;;;;;;;14.10;11.70;;;23.20;99.90;;;;;;5023653;28;20209;-67
2022/08/17 04:26:14;;;;;;;14.85;11.40;;;23.30;99.90;;;;;;5022521;28;20743;-67
2022/08/17 04:28:41;;;;;;;15.52;11.90;;;23.40;99.90;;;;;;5006472;28;20224;-67
2022/08/17 04:31:08;;;;;;;15.52;12.27;;;23.40;99.90;;;;;;5005647;28;20176;-67
2022/08/17 04:33:33;;;;;;;16.23;12.45;;;23.50;99.90;;;;;;5024163;28;20201;-67
2022/08/17 04:36:01;;;;;;;17.25;13.30;;;23.60;99.90;;;;;;5022863;28;20204;-67
2022/08/17 04:38:33;;;;;;;14.25;12.27;;;23.80;99.90;;;;;;5020461;28;20205;-67
2022/08/17 04:43:46;;;;;;;14.32;12.15;;;25.60;99.90;;;;;;5020905;28;20288;-67
2022/08/17 04:46:18;;;;;;;14.57;11.68;;;27.00;99.90;;;;;;5010209;28;20222;-67
2022/08/17 04:48:48;;;;;;;14.05;12.05;;;28.00;99.90;;;;;;5024121;28;20216;-67
2022/08/17 04:51:18;;;;;;;14.50;11.40;;;28.90;99.90;;;;;;5024383;28;20681;-67
2022/08/17 04:53:47;;;;;;;14.35;12.15;;;29.60;99.90;;;;;;5028783;28;20285;-68
2022/08/17 04:56:14;;;;;;;14.48;11.15;;;30.20;99.90;;;;;;5007433;28;20208;-68
2022/08/17 04:58:41;;;;;;;16.45;11.52;;;30.70;99.90;;;;;;5023583;28;20261;-68
2022/08/17 05:01:07;;;;;;;13.43;12.02;;;31.10;99.90;;;;;;5009648;28;20770;-67
2022/08/17 05:03:33;;;;;;;15.20;12.88;;;31.50;99.90;;;;;;5027082;28;20212;-68
2022/08/17 05:05:59;;;;;;;17.60;13.35;;;31.80;99.90;;;;;;5025235;28;20200;-68
2022/08/17 05:08:25;;;;;;;15.82;14.05;;;32.10;99.90;;;;;;5023925;28;20759;-67
2022/08/17 05:10:50;;;;;;;15.60;13.82;;;31.70;99.90;;;;;;5028697;28;20290;-68
2022/08/17 05:13:23;;;;;;;15.43;13.82;;;32.10;99.90;;;;;;5024532;28;20180;-67
2022/08/17 05:15:52;;;;;;;16.80;13.45;;;32.60;99.90;;;;;;5027607;28;20176;-68
2022/08/17 05:18:18;;;;;;;16.08;13.38;;;33.10;99.90;;;;;;5008175;28;20208;-68
2022/08/17 05:20:44;;;;;;;15.75;12.35;;;33.60;99.90;;;;;;5026736;28;20196;-68
2022/08/17 05:23:13;;;;;;;18.13;13.23;;;33.80;99.90;;;;;;5023652;28;20653;-68
2022/08/17 05:25:41;;;;;;;14.73;12.63;;;33.20;99.90;;;;;;5023075;28;20304;-68
2022/08/17 05:28:09;;;;;;;16.73;11.77;;;33.30;99.90;;;;;;5028620;28;20196;-68
2022/08/17 05:30:36;;;;;;;18.50;12.60;;;33.70;99.90;;;;;;5011061;28;20196;-68
2022/08/17 05:33:09;;;;;;;15.18;12.40;;;33.20;99.90;;;;;;5026175;28;20196;-67
2022/08/17 05:35:38;;;;;;;13.00;11.75;;;32.80;99.90;;;;;;5027681;28;20204;-68
2022/08/17 05:38:04;;;;;;;18.10;12.25;;;33.00;99.90;;;;;;5026336;28;20711;-68
2022/08/17 05:40:30;;;;;;;13.30;11.90;;;33.80;99.90;;;;;;5022111;28;20176;-68
2022/08/17 05:43:29;;;;;;;13.70;11.90;;;34.50;99.90;;;;;;5027120;28;20243;-68
2022/08/17 05:45:58;;;;;;;12.27;11.05;;;35.10;99.90;;;;;;5026605;28;20281;-68
2022/08/17 05:48:24;;;;;;;13.25;11.90;;;35.50;99.90;;;;;;5021950;28;20212;-68
2022/08/17 05:51:18;;;;;;;12.45;11.18;;;35.40;99.90;;;;;;5023165;28;20196;-68
2022/08/17 05:54:05;;;;;;;13.52;12.10;;;35.10;99.90;;;;;;5027119;28;20196;-68
2022/08/17 05:57:01;;;;;;;13.38;12.02;;;35.20;99.90;;;;;;5022973;28;20200;-68
2022/08/17 05:59:48;;;;;;;12.93;11.52;;;35.40;99.90;;;;;;5023363;28;20867;-68
2022/08/17 06:02:13;;;;;;;12.18;10.98;;;35.20;99.90;;;;;;5025021;28;20254;-68
2022/08/17 06:04:59;;;;;;;11.88;10.77;;;35.10;99.90;;;;;;5024439;28;20209;-68
2022/08/17 06:08:03;;;;;;;11.48;10.38;;;35.10;99.90;;;;;;5019981;28;20208;-68
2022/08/17 06:10:40;;;;;;;12.13;10.60;;;35.40;99.90;;;;;;4996708;28;20185;-69
2022/08/17 06:13:21;;;;;;;13.48;11.13;;;35.70;99.90;;;;;;5024068;28;20253;-68
2022/08/17 06:15:52;;;;;;;12.80;11.63;;;36.10;99.20;;;;;;5024908;28;20211;-68
2022/08/17 06:18:20;;;;;;;11.82;10.65;;;36.40;98.60;;;;;;5024784;28;20287;-68
2022/08/17 06:20:52;;;;;;;11.02;9.90;;;36.80;96.30;;;;;;5023643;28;20208;-68
2022/08/17 06:23:29;;;;;;;12.75;10.02;;;37.40;95.00;;;;;;5021281;28;20216;-69
2022/08/17 06:26:02;;;;;;;11.13;10.02;;;37.60;94.10;;;;;;5022892;28;20208;-68
2022/08/17 06:28:45;;;;;;;9.65;8.48;;;37.20;93.20;;;;;;5010077;28;20283;-68
2022/08/17 06:31:21;;;;;;;9.13;8.05;;;37.00;92.10;;;;;;5023274;28;20635;-68
2022/08/17 06:33:47;;;;;;;9.02;8.13;;;38.20;91.80;;;;;;5026323;28;20222;-68
2022/08/17 06:36:43;;;;;;;11.90;8.90;;;38.20;90.30;;;;;;5027434;28;20230;-68
2022/08/17 06:39:17;;;;;;;9.77;8.77;;;37.10;89.50;;;;;;5007087;28;20270;-68
2022/08/17 06:42:29;;;;;;;11.52;9.82;;;37.20;89.70;;;;;;5011580;28;20240;-68
2022/08/17 06:45:03;;;;;;;12.65;10.63;;;38.10;90.00;;;;;;5025150;28;20199;-68
2022/08/17 06:47:43;;;;;;;11.43;10.20;;;37.80;90.00;;;;;;5022706;28;20208;-68
2022/08/17 06:50:58;;;;;;;12.05;10.77;;;38.40;88.70;;;;;;5021710;28;20269;-68
2022/08/17 06:53:28;;;;;;;12.10;11.00;;;39.00;85.10;;;;;;5011313;28;20749;-70
2022/08/17 06:56:12;;;;;;;12.82;11.43;;;38.90;86.70;;;;;;5025433;28;20212;-69
2022/08/17 06:58:42;;;;;;;11.52;10.60;;;38.80;86.90;;;;;;5021048;28;20204;-69
2022/08/17 07:01:14;;;;;;;11.80;10.43;;;38.70;86.80;;;;;;5028863;28;20791;-68
2022/08/17 07:03:53;;;;;;;13.50;11.10;;;39.60;86.00;;;;;;5024844;28;20303;-68
2022/08/17 07:06:21;;;;;;;11.27;10.18;;;39.30;84.30;;;;;;5002921;28;20222;-68
2022/08/17 07:08:57;;;;;;;11.15;10.07;;;40.10;83.30;;;;;;5024699;28;20688;-69
2022/08/17 07:11:30;;;;;;;11.05;9.95;;;40.60;81.50;;;;;;5025029;28;20199;-68
2022/08/17 07:14:15;;;;;;;9.27;8.38;;;41.00;80.70;;;;;;5024595;28;20770;-68
2022/08/17 07:16:45;;;;;;;9.35;8.50;;;40.20;79.10;;;;;;5022233;28;20327;-69
2022/08/17 07:19:15;;;;;;;8.68;7.78;;;39.50;78.40;;;;;;5022990;28;20168;-69
2022/08/17 07:22:00;;;;;;;8.07;6.47;;;38.60;79.40;;;;;;5017897;28;20248;-68
2022/08/17 07:24:46;;;;;;;8.07;7.07;;;38.20;78.40;;;;;;5032506;28;20223;-68
2022/08/17 07:27:26;;;;;;;7.78;6.97;;;38.30;78.60;;;;;;5030059;28;20235;-68
2022/08/17 07:30:06;;;;;;;7.20;6.50;;;38.70;78.50;;;;;;5021688;28;20200;-68
2022/08/17 07:32:49;;;;;;;7.55;6.80;;;39.00;77.60;;;;;;5024245;28;20218;-69
2022/08/17 07:35:18;;;;;;;8.18;7.38;;;39.10;77.50;;;;;;5024463;28;20234;-69
2022/08/17 07:38:07;;;;;;;8.25;7.45;;;39.00;77.10;;;;;;5025161;28;20207;-69
2022/08/17 07:40:56;;;;;;;9.05;7.82;;;40.00;76.80;;;;;;5021808;28;20303;-69
2022/08/17 07:43:40;;;;;;;7.88;6.20;;;40.60;74.30;;;;;;5018308;28;20184;-68
2022/08/17 07:49:22;;;;;;;8.73;7.53;;;41.10;72.20;;;;;;5021982;28;20253;-69
2022/08/17 07:51:49;;;;;;;9.27;7.13;;;41.90;71.30;;;;;;5024927;28;20179;-68
2022/08/17 07:54:14;;;;;;;8.48;6.93;;;41.70;70.50;;;;;;5011908;28;20212;-68
2022/08/17 07:57:02;;;;;;;7.85;6.70;;;40.70;71.60;;;;;;5026493;28;20619;-68
2022/08/17 07:59:32;;;;;;;9.02;6.97;;;40.90;71.20;;;;;;5028344;28;20222;-69
2022/08/17 08:01:59;;;;;;;7.93;7.32;;;40.90;72.00;;;;;;5030468;28;20222;-68
2022/08/17 08:04:39;;;;;;;7.07;6.05;;;40.30;71.10;;;;;;5025948;28;20188;-68
2022/08/17 08:07:19;;;;;;;5.93;5.43;;;38.70;71.10;;;;;;5025012;28;20200;-68
2022/08/17 08:10:03;;;;;;;7.95;6.00;;;39.20;73.30;;;;;;5030585;28;20219;-68
2022/08/17 08:12:34;;;;;;;7.50;6.82;;;39.60;71.80;;;;;;5012676;28;20275;-68
2022/08/17 08:15:22;;;;;;;5.93;5.43;;;38.30;72.50;;;;;;5028508;28;20200;-68
2022/08/17 08:18:03;;;;;;;6.32;4.50;;;37.90;72.20;;;;;;5024180;28;20230;-68
2022/08/17 08:20:53;;;;;;;6.22;5.35;;;37.90;71.70;;;;;;5027457;28;20211;-68
2022/08/17 08:23:36;;;;;;;8.82;5.22;;;38.20;73.00;;;;;;5025019;28;20258;-68
2022/08/17 08:26:32;;;;;;;7.25;5.80;;;38.20;72.10;;;;;;5054007;23;20660;-68
2022/08/17 08:29:11;;;;;;;6.07;5.25;;;37.70;73.30;;;;;;5045676;28;20211;-68
2022/08/17 08:31:57;;;;;;;5.82;5.20;;;37.10;75.50;;;;;;5026604;28;20691;-68
2022/08/17 08:34:28;;;;;;;6.63;5.07;;;37.80;73.10;;;;;;5044042;28;20194;-68
2022/08/17 08:37:21;;;;;;;6.47;4.90;;;38.10;73.40;;;;;;5059802;28;20182;-72
2022/08/17 08:40:07;;;;;;;6.03;5.45;;;38.30;72.40;;;;;;5046317;28;20207;-69
2022/08/17 08:43:02;;;;;;;8.07;5.45;;;38.20;73.20;;;;;;5057679;28;20203;-69
2022/08/17 08:45:44;;;;;;;6.28;5.28;;;39.10;72.40;;;;;;5055732;28;20207;-69
2022/08/17 08:48:45;;;;;;;6.47;5.35;;;39.40;71.20;;;;;;5034315;28;20202;-70
2022/08/17 08:51:27;;;;;;;6.93;4.95;;;39.50;70.60;;;;;;5029735;28;20203;-69
2022/08/17 08:54:30;;;;;;;7.35;5.40;;;38.50;71.70;;;;;;5054947;28;20265;-69
2022/08/17 08:57:30;;;;;;;7.80;4.95;;;38.50;72.90;;;;;;5053920;28;20542;-72
2022/08/17 09:00:03;;;;;;;6.75;5.28;;;39.60;71.30;;;;;;5057215;28;20200;-70
2022/08/17 09:02:58;;;;;;;7.30;5.22;;;38.40;70.90;;;;;;5040637;28;20195;-70
2022/08/17 09:05:45;;;;;;;5.22;4.72;;;37.80;72.20;;;;;;5029566;28;20199;-69
2022/08/17 09:08:39;;;;;;;7.25;5.15;;;37.60;71.70;;;;;;5036250;28;20207;-69
2022/08/17 09:11:05;;;;;;;5.13;4.63;;;36.70;73.10;;;;;;5056379;28;20229;-69
2022/08/17 09:13:36;;;;;;;5.22;4.72;;;36.80;73.00;;;;;;5056034;28;20191;-69
2022/08/17 09:16:39;;;;;;;5.65;4.38;;;36.30;73.60;;;;;;5049991;28;20199;-69
2022/08/17 09:19:22;;;;;;;5.60;4.68;;;36.60;73.30;;;;;;5004672;28;20614;-69
2022/08/17 09:22:09;;;;;;;5.57;5.10;;;36.70;73.30;;;;;;5035217;28;20203;-69
2022/08/17 09:24:38;;;;;;;6.20;4.72;;;36.40;73.80;;;;;;5027512;28;20219;-68
2022/08/17 09:27:13;;;;;;;6.65;4.68;;;37.20;74.20;;;;;;5040991;28;20203;-69
2022/08/17 09:29:47;;;;;;;5.25;4.20;;;37.80;73.90;;;;;;5050363;28;20210;-70
2022/08/17 09:32:23;;;;;;;5.82;4.60;;;36.60;72.40;;;;;;5039096;28;20206;-68
2022/08/17 09:34:53;;;;;;;5.78;4.63;;;35.50;74.70;;;;;;5040234;28;20205;-68
2022/08/17 09:37:26;;;;;;;4.32;3.92;;;35.10;74.80;;;;;;5038245;28;20183;-68
2022/08/17 09:40:02;;;;;;;5.50;3.97;;;34.50;75.30;;;;;;5053726;28;20178;-68
2022/08/17 09:42:51;;;;;;;5.82;3.72;;;34.70;75.90;;;;;;5053841;28;20221;-68
2022/08/17 09:45:43;;;;;;;5.55;3.88;;;35.70;75.50;;;;;;5051810;28;20592;-68
2022/08/17 09:48:26;;;;;;;4.47;4.07;;;36.10;74.20;;;;;;5050503;28;20207;-68
2022/08/17 09:51:02;;;;;;;4.57;3.53;;;36.40;74.80;;;;;;5051236;28;20195;-66
2022/08/17 09:53:30;;;;;;;7.13;3.80;;;36.40;73.10;;;;;;5039880;28;20195;-68
2022/08/17 09:56:27;;;;;;;4.85;4.45;;;35.80;73.40;;;;;;5055058;28;20223;-67
2022/08/17 09:59:15;;;;;;;5.85;4.40;;;35.10;74.70;;;;;;5047040;28;20231;-68
2022/08/17 10:01:59;;;;;;;5.65;4.55;;;34.90;75.60;;;;;;5059914;28;20633;-69
2022/08/17 10:04:38;;;;;;;5.65;5.07;;;35.10;75.50;;;;;;5054748;28;20196;-69
2022/08/17 10:07:29;;;;;;;6.25;4.00;;;35.30;76.00;;;;;;5049735;28;20164;-68
2022/08/17 10:10:16;;;;;;;7.38;4.93;;;36.10;75.00;;;;;;5054787;28;20202;-69
2022/08/17 10:12:53;;;;;;;6.05;4.28;;;35.80;74.00;;;;;;5055808;28;20210;-68
2022/08/17 10:15:26;;;;;;;5.25;4.75;;;36.30;74.50;;;;;;5034702;28;20198;-69
2022/08/17 10:18:24;;;;;;;5.97;4.80;;;35.80;73.70;;;;;;5057168;28;20205;-68
2022/08/17 10:26:11;;;;;;;6.72;4.63;;;35.70;75.10;;;;;;5052619;28;20636;-70
2022/08/17 10:26:37;;;;;;;7.15;3.97;;;36.00;74.30;;;;;;5057972;28;20288;-68
2022/08/17 10:29:10;;;;;;;8.68;4.93;;;36.30;75.30;;;;;;5054899;28;20207;-69
2022/08/17 10:31:41;;;;;;;5.10;4.40;;;36.70;74.70;;;;;;5052161;28;20664;-69
2022/08/17 10:34:25;;;;;;;6.63;4.82;;;36.30;73.60;;;;;;5050455;28;20701;-70
2022/08/17 10:37:18;;;;;;;6.57;4.53;;;35.80;73.90;;;;;;5053371;28;20707;-68
2022/08/17 10:40:18;;;;;;;13.90;5.50;;;36.50;74.70;;;;;;5053662;28;20199;-68
2022/08/17 10:42:49;;;;;;;6.63;5.35;;;36.90;75.00;;;;;;5039800;28;20199;-70
2022/08/17 10:45:28;;;;;;;7.72;3.90;;;37.00;73.00;;;;;;5050660;28;20253;-69
2022/08/17 10:48:05;;;;;;;4.88;3.90;;;37.00;72.40;;;;;;5052689;28;20304;-70
2022/08/17 10:51:01;;;;;;;5.68;5.00;;;36.50;72.10;;;;;;5025345;28;20522;-69
2022/08/17 10:53:35;;;;;;;4.07;3.70;;;35.70;73.20;;;;;;5037003;28;20191;-69
2022/08/17 10:56:13;;;;;;;5.63;4.25;;;35.10;74.00;;;;;;5053594;28;20233;-68
2022/08/17 10:58:45;;;;;;;5.43;4.32;;;35.00;74.30;;;;;;5033094;28;20675;-69
2022/08/17 11:01:11;;;;;;;5.72;4.45;;;34.80;74.30;;;;;;5039263;28;20176;-70
2022/08/17 11:03:53;;;;;;;5.45;3.92;;;35.30;74.30;;;;;;5056381;28;20591;-70
2022/08/17 11:06:37;;;;;;;4.30;3.28;;;35.50;73.90;;;;;;5052120;28;20207;-69
2022/08/17 11:09:21;;;;;;;3.85;3.50;;;35.20;72.50;;;;;;5037152;28;20202;-70
2022/08/17 11:12:22;;;;;;;4.43;3.25;;;35.10;72.90;;;;;;5052108;28;20209;-70
2022/08/17 11:15:07;;;;;;;4.15;3.47;;;35.40;72.10;;;;;;5029834;28;20222;-70
2022/08/17 11:18:00;;;;;;;4.45;3.30;;;35.30;71.70;;;;;;5053300;28;20218;-69
2022/08/17 11:20:51;;;;;;;3.80;3.42;;;35.40;71.90;;;;;;5053786;28;20196;-70
2022/08/17 11:23:25;;;;;;;3.55;3.25;;;35.00;72.00;;;;;;5050507;28;20203;-71
2022/08/17 11:25:54;;;;;;;4.95;3.28;;;35.00;73.20;;;;;;5035771;28;20213;-69
2022/08/17 11:28:24;;;;;;;4.38;3.30;;;34.70;72.40;;;;;;5054979;28;20250;-69
2022/08/17 11:31:00;;;;;;;5.50;3.53;;;34.70;74.00;;;;;;5055485;28;20180;-69
2022/08/17 11:33:28;;;;;;;5.07;3.83;;;34.40;73.10;;;;;;5026637;28;20567;-69
2022/08/17 11:36:22;;;;;;;5.78;3.45;;;34.90;73.10;;;;;;5061977;28;20206;-69
2022/08/17 11:38:56;;;;;;;5.97;4.18;;;34.90;72.50;;;;;;5054515;28;20195;-69
2022/08/17 11:41:41;;;;;;;4.30;3.90;;;34.90;73.30;;;;;;5055010;28;20203;-68
2022/08/17 11:44:40;;;;;;;4.60;4.20;;;35.40;73.00;;;;;;5056362;28;20200;-70
2022/08/17 11:53:36;;;;;;;3.53;2.90;;;35.10;67.60;;;;;;5060204;28;20253;-71
2022/08/17 11:56:34;;;;;;;3.15;2.85;;;34.70;69.50;;;;;;5056703;28;20290;-68
2022/08/17 11:59:01;;;;;;;3.28;2.95;;;34.80;70.20;;;;;;5007625;28;20290;-68
2022/08/17 12:01:28;;;;;;;4.05;2.95;;;34.70;71.00;;;;;;5060335;28;20194;-70
2022/08/17 12:04:13;;;;;;;4.15;3.25;;;34.80;71.60;;;;;;5041166;28;20171;-68
2022/08/17 12:06:51;;;;;;;3.20;2.88;;;35.10;70.90;;;;;;5054447;28;20835;-69
2022/08/17 12:09:23;;;;;;;4.90;3.47;;;35.60;71.00;;;;;;5038011;28;20211;-69
2022/08/17 12:11:56;;;;;;;3.72;3.38;;;36.00;70.30;;;;;;5057610;28;20209;-69
2022/08/17 12:14:28;;;;;;;5.97;3.65;;;36.10;70.20;;;;;;5052939;28;20230;-70
2022/08/17 12:17:14;;;;;;;4.47;3.15;;;35.60;70.70;;;;;;5053450;28;20203;-69
2022/08/17 12:19:41;;;;;;;4.00;3.60;;;34.70;71.20;;;;;;5060324;28;20207;-69
2022/08/17 12:22:19;;;;;;;4.03;3.70;;;34.40;73.10;;;;;;5056614;28;20251;-70
2022/08/17 12:24:54;;;;;;;5.25;3.40;;;34.10;73.40;;;;;;5057665;28;20222;-69
2022/08/17 12:27:30;;;;;;;6.32;4.20;;;33.70;73.00;;;;;;5055887;28;20230;-67
2022/08/17 12:29:56;;;;;;;4.10;3.60;;;33.60;73.60;;;;;;5055056;28;20195;-69
2022/08/17 12:32:33;;;;;;;7.35;4.10;;;33.60;73.70;;;;;;5054322;28;20278;-67
2022/08/17 12:34:59;;;;;;;4.00;3.20;;;33.80;73.60;;;;;;5039335;28;20229;-68
2022/08/17 12:37:32;;;;;;;4.70;3.40;;;34.30;73.90;;;;;;5040068;28;20203;-68
2022/08/17 12:40:01;;;;;;;5.88;3.50;;;34.30;72.40;;;;;;5055030;28;20183;-68
2022/08/17 12:42:33;;;;;;;4.40;4.00;;;34.30;72.50;;;;;;5035720;28;20221;-68
2022/08/17 12:44:59;;;;;;;3.75;3.45;;;34.40;72.60;;;;;;5057749;28;20225;-68
2022/08/17 12:47:26;;;;;;;3.83;3.38;;;34.30;72.10;;;;;;5060536;28;20691;-67
2022/08/17 12:49:53;;;;;;;4.03;3.63;;;34.00;72.40;;;;;;5053391;28;20198;-66
2022/08/17 12:52:26;;;;;;;4.63;3.58;;;33.60;73.40;;;;;;5059294;28;20644;-68
2022/08/17 12:55:09;;;;;;;5.47;3.53;;;33.70;73.30;;;;;;5056838;28;20686;-70
2022/08/17 12:57:42;;;;;;;3.50;3.20;;;33.80;72.40;;;;;;5053637;28;20210;-68
2022/08/17 13:00:16;;;;;;;3.67;3.33;;;34.00;72.80;;;;;;5037740;28;20287;-68
2022/08/17 13:02:57;;;;;;;3.35;3.05;;;34.10;72.80;;;;;;5059480;28;20202;-69
2022/08/17 13:05:26;;;;;;;6.38;4.55;;;34.20;73.00;;;;;;5054617;28;20737;-68
2022/08/17 13:07:54;;;;;;;5.82;4.63;;;34.30;73.10;;;;;;5052113;28;20218;-69
2022/08/17 13:10:29;;;;;;;3.85;3.55;;;34.30;73.00;;;;;;5062271;28;20175;-69
2022/08/17 13:12:55;;;;;;;3.75;3.20;;;34.10;72.10;;;;;;5055785;28;20176;-68
2022/08/17 13:15:40;;;;;;;3.50;3.20;;;33.90;72.30;;;;;;5050912;28;20199;-70
2022/08/17 13:18:07;;;;;;;5.72;3.47;;;33.70;72.70;;;;;;5057105;28;20680;-71
2022/08/17 13:20:34;;;;;;;3.80;3.50;;;33.60;73.30;;;;;;5040427;28;20286;-69
2022/08/17 13:23:05;;;;;;;4.00;3.60;;;33.60;73.60;;;;;;5050296;28;20199;-68
2022/08/17 13:25:31;;;;;;;6.15;3.63;;;33.70;73.50;;;;;;5057016;28;20203;-68
2022/08/17 13:27:57;;;;;;;3.50;3.20;;;33.80;73.60;;;;;;5059655;28;20191;-69
2022/08/17 13:30:31;;;;;;;3.47;3.17;;;33.50;73.60;;;;;;5055039;28;20767;-69
2022/08/17 13:32:57;;;;;;;3.97;3.28;;;33.40;73.30;;;;;;5027059;28;20211;-68
2022/08/17 13:35:25;;;;;;;4.68;4.13;;;33.70;73.80;;;;;;5058394;28;20279;-69
2022/08/17 13:38:03;;;;;;;6.72;4.00;;;33.70;72.40;;;;;;5057651;28;20278;-68
2022/08/17 13:40:35;;;;;;;4.13;3.75;;;33.50;72.00;;;;;;5051591;28;20171;-69